createdAt,value
2018-06-23T00:00:47.605Z,70.20
2018-06-23T00:05:50.668Z,70.50
2018-06-23T00:11:11.901Z,70.80
2018-06-23T00:16:15.165Z,69.90
2018-06-23T00:21:18.209Z,70.80
2018-06-23T00:26:26.996Z,71.10
2018-06-23T00:31:30.089Z,71.20
2018-06-23T00:36:37.313Z,71.30
2018-06-23T00:41:40.345Z,71.40
2018-06-23T00:46:43.410Z,71.50
2018-06-23T00:51:46.448Z,71.60
2018-06-23T00:56:50.026Z,71.70
2018-06-23T01:01:53.061Z,71.70
2018-06-23T01:06:56.096Z,71.80
2018-06-23T01:12:00.116Z,72.00
2018-06-23T01:17:04.073Z,72.10
2018-06-23T01:22:07.109Z,72.30
2018-06-23T01:27:10.146Z,72.60
2018-06-23T01:32:13.205Z,72.60
2018-06-23T01:37:17.017Z,72.60
2018-06-23T01:42:21.092Z,72.70
2018-06-23T01:47:25.121Z,72.70
2018-06-23T01:52:28.163Z,72.50
2018-06-23T01:57:31.213Z,72.40
2018-06-23T02:02:34.296Z,72.50
2018-06-23T02:07:38.066Z,72.50
2018-06-23T02:12:41.317Z,72.30
2018-06-23T02:17:49.939Z,72.50
2018-06-23T02:24:02.557Z,72.50
2018-06-23T02:29:11.070Z,72.60
2018-06-23T02:34:32.349Z,72.40
2018-06-23T02:39:35.625Z,72.10
2018-06-23T02:44:38.905Z,72.40
2018-06-23T02:49:41.982Z,72.30
2018-06-23T02:54:45.485Z,72.30
2018-06-23T02:59:48.702Z,72.10
2018-06-23T03:04:51.923Z,72.20
2018-06-23T03:09:55.103Z,72.20
2018-06-23T03:14:58.463Z,72.30
2018-06-23T03:20:01.493Z,73.10
2018-06-23T03:25:04.561Z,72.20
2018-06-23T03:30:07.641Z,72.20
2018-06-23T03:35:10.699Z,72.20
2018-06-23T03:40:13.742Z,72.10
2018-06-23T03:50:51.279Z,71.50
2018-06-23T03:55:54.329Z,72.10
2018-06-23T04:01:03.285Z,72.10
2018-06-23T04:06:06.330Z,72.40
2018-06-23T04:11:10.357Z,72.40
2018-06-23T04:16:13.401Z,72.50
2018-06-23T04:21:16.437Z,72.60
2018-06-23T04:26:44.413Z,72.70
2018-06-23T04:31:47.706Z,72.00
2018-06-23T04:37:12.713Z,73.30
2018-06-23T04:42:23.032Z,73.00
2018-06-23T04:47:40.950Z,74.40
2018-06-23T04:52:44.080Z,75.20
2018-06-23T04:57:47.140Z,76.00
2018-06-23T05:02:50.236Z,76.60
2018-06-23T05:07:53.276Z,76.90
2018-06-23T05:12:56.417Z,77.40
2018-06-23T05:18:10.374Z,78.00
2018-06-23T05:23:13.388Z,78.10
2018-06-23T05:28:19.403Z,78.20
2018-06-23T05:33:24.398Z,78.40
2018-06-23T05:38:27.462Z,78.60
2018-06-23T05:43:30.506Z,78.80
2018-06-23T05:48:34.060Z,79.00
2018-06-23T05:53:38.131Z,79.00
2018-06-23T05:58:41.209Z,79.30
2018-06-23T06:03:44.343Z,79.50
2018-06-23T06:09:12.729Z,79.80
2018-06-23T06:20:51.172Z,79.10
2018-06-23T06:26:17.057Z,80.20
2018-06-23T06:31:20.515Z,79.10
2018-06-23T06:36:23.611Z,80.70
2018-06-23T06:41:28.129Z,81.30
2018-06-23T06:46:31.182Z,81.40
2018-06-23T06:51:52.937Z,81.70
2018-06-23T06:56:55.978Z,80.90
2018-06-23T07:01:59.621Z,82.00
2018-06-23T07:07:03.398Z,82.20
2018-06-23T07:12:06.502Z,82.20
2018-06-23T07:17:09.561Z,82.30
2018-06-23T07:22:12.693Z,82.60
2018-06-23T07:27:15.840Z,82.40
2018-06-23T07:32:18.938Z,82.40
2018-06-23T07:37:22.001Z,82.40
2018-06-23T07:42:25.833Z,83.10
2018-06-23T07:47:28.974Z,82.60
2018-06-23T07:52:32.092Z,82.50
2018-06-23T07:57:35.746Z,82.30
2018-06-23T08:02:38.813Z,82.30
2018-06-23T08:07:44.707Z,82.60
2018-06-23T08:12:47.796Z,83.00
2018-06-23T08:22:54.354Z,82.30
2018-06-23T08:28:25.634Z,81.50
2018-06-23T08:33:28.701Z,80.10
2018-06-23T08:38:31.749Z,79.70
2018-06-23T08:43:35.373Z,78.60
2018-06-23T08:48:38.428Z,78.00
2018-06-23T08:53:46.415Z,77.80
2018-06-23T08:58:49.447Z,78.50
2018-06-23T09:03:52.498Z,76.00
2018-06-23T09:09:16.538Z,75.30
2018-06-23T09:14:21.725Z,73.90
2018-06-23T09:19:25.023Z,73.90
2018-06-23T09:29:31.272Z,72.10
2018-06-23T09:34:34.432Z,68.50
2018-06-23T09:39:37.480Z,67.00
2018-06-23T09:44:40.573Z,65.10
2018-06-23T09:49:43.639Z,63.00
2018-06-23T09:54:46.684Z,62.90
2018-06-23T09:59:50.500Z,61.30
2018-06-23T10:09:56.434Z,60.30
2018-06-23T10:14:59.505Z,60.40
2018-06-23T10:20:02.557Z,59.00
2018-06-23T10:25:06.698Z,59.70
2018-06-23T10:30:09.818Z,60.00
2018-06-23T10:35:14.168Z,59.30
2018-06-23T10:40:17.306Z,59.10
2018-06-23T10:50:23.426Z,59.40
2018-06-23T11:00:29.407Z,57.30
2018-06-23T11:05:36.690Z,55.20
2018-06-23T11:10:39.757Z,55.70
2018-06-23T11:15:43.889Z,55.90
2018-06-23T11:20:46.958Z,56.30
2018-06-23T11:25:52.137Z,58.30
2018-06-23T11:30:55.231Z,58.30
2018-06-23T11:41:01.619Z,57.40
2018-06-23T11:46:06.982Z,58.20
2018-06-23T11:51:16.839Z,58.00
2018-06-23T11:56:19.923Z,56.50
2018-06-23T12:01:22.974Z,55.90
2018-06-23T12:06:26.662Z,56.00
2018-06-23T12:11:29.769Z,56.40
2018-06-23T12:16:32.830Z,55.90
2018-06-23T12:21:36.013Z,55.60
2018-06-23T12:26:39.174Z,55.30
2018-06-23T12:31:42.268Z,55.30
2018-06-23T12:36:45.325Z,54.70
2018-06-23T12:41:48.383Z,53.40
2018-06-23T12:46:56.672Z,54.40
2018-06-23T12:51:59.714Z,53.80
2018-06-23T12:57:03.780Z,53.60
2018-06-23T13:02:06.916Z,53.70
2018-06-23T13:07:10.306Z,52.40
2018-06-23T13:12:13.345Z,52.40
2018-06-23T13:17:16.386Z,52.10
2018-06-23T13:22:19.529Z,52.30
2018-06-23T13:27:22.506Z,52.00
2018-06-23T13:32:27.530Z,51.50
2018-06-23T13:37:30.641Z,50.90
2018-06-23T13:42:33.693Z,50.30
2018-06-23T13:47:36.737Z,50.70
2018-06-23T13:52:56.128Z,51.80
2018-06-23T13:57:59.178Z,50.40
2018-06-23T14:03:02.329Z,50.00
2018-06-23T14:08:05.380Z,49.80
2018-06-23T14:13:08.443Z,49.90
2018-06-23T14:18:11.484Z,50.70
2018-06-23T14:23:14.581Z,50.60
2018-06-23T14:28:17.889Z,50.30
2018-06-23T14:33:20.948Z,50.80
2018-06-23T14:38:24.086Z,49.90
2018-06-23T14:43:27.131Z,49.80
2018-06-23T14:48:30.233Z,49.20
2018-06-23T14:53:33.764Z,49.30
2018-06-23T14:58:55.389Z,51.30
2018-06-23T15:03:58.457Z,50.20
2018-06-23T15:09:13.215Z,49.50
2018-06-23T15:14:16.424Z,49.70
2018-06-23T15:19:19.464Z,49.20
2018-06-23T15:24:22.532Z,49.10
2018-06-23T15:29:25.920Z,47.60
2018-06-23T15:34:33.486Z,47.80
2018-06-23T15:39:36.944Z,47.20
2018-06-23T15:44:40.517Z,47.10
2018-06-23T15:49:43.552Z,46.50
2018-06-23T15:54:46.722Z,45.70
2018-06-23T15:59:49.794Z,46.40
2018-06-23T16:04:52.846Z,46.30
2018-06-23T16:09:55.990Z,46.20
2018-06-23T16:14:59.047Z,46.30
2018-06-23T16:20:02.194Z,47.50
2018-06-23T16:25:05.593Z,47.20
2018-06-23T16:30:08.769Z,46.60
2018-06-23T16:35:12.095Z,47.30
2018-06-23T16:40:14.873Z,47.40
2018-06-23T16:45:17.907Z,47.70
2018-06-23T16:50:20.977Z,47.60
2018-06-23T16:55:24.039Z,48.50
2018-06-23T17:00:27.140Z,48.30
2018-06-23T17:05:30.205Z,48.50
2018-06-23T17:10:33.294Z,48.60
2018-06-23T17:15:36.320Z,48.10
2018-06-23T17:20:39.640Z,48.30
2018-06-23T17:25:43.600Z,48.80
2018-06-23T17:30:46.628Z,49.60
2018-06-23T17:35:58.800Z,49.50
2018-06-23T17:41:04.020Z,49.90
2018-06-23T17:46:07.053Z,50.20
2018-06-23T17:51:10.124Z,51.20
2018-06-23T17:56:30.990Z,51.30
2018-06-23T18:01:34.769Z,50.70
2018-06-23T18:06:37.817Z,51.80
2018-06-23T18:11:40.853Z,51.80
2018-06-23T18:16:43.924Z,52.80
2018-06-23T18:21:47.081Z,52.00
2018-06-23T18:26:50.345Z,52.30
2018-06-23T18:31:53.369Z,52.90
2018-06-23T18:36:56.404Z,53.20
2018-06-23T18:41:59.538Z,52.90
2018-06-23T18:47:02.585Z,53.10
2018-06-23T18:52:06.313Z,53.80
2018-06-23T18:57:09.440Z,54.30
2018-06-23T19:02:12.545Z,54.90
2018-06-23T19:07:15.597Z,55.30
2018-06-23T19:12:18.644Z,55.60
2018-06-23T19:17:21.803Z,55.70
2018-06-23T19:22:24.833Z,55.60
2018-06-23T19:27:27.868Z,56.00
2018-06-23T19:32:30.917Z,56.20
2018-06-23T19:38:08.550Z,56.80
2018-06-23T19:43:11.629Z,56.20
2018-06-23T19:48:14.689Z,57.20
2018-06-23T19:53:25.587Z,57.30
2018-06-23T19:58:28.604Z,56.90
2018-06-23T20:03:32.389Z,57.40
2018-06-23T20:08:35.422Z,57.90
2018-06-23T20:13:38.464Z,58.50
2018-06-23T20:18:42.198Z,58.30
2018-06-23T20:23:45.470Z,58.40
2018-06-23T20:28:48.905Z,60.00
2018-06-23T20:33:52.093Z,61.60
2018-06-23T20:38:55.319Z,63.00
2018-06-23T20:43:58.416Z,63.70
2018-06-23T20:49:01.469Z,63.90
2018-06-23T20:54:04.554Z,64.40
2018-06-23T20:59:20.886Z,64.80
2018-06-23T21:04:24.834Z,65.70
2018-06-23T21:09:27.986Z,65.20
2018-06-23T21:14:31.034Z,65.60
2018-06-23T21:19:40.609Z,66.00
2018-06-23T21:29:46.693Z,66.30
2018-06-23T21:34:50.302Z,66.00
2018-06-23T21:39:53.389Z,66.20
2018-06-23T21:44:56.568Z,66.60
2018-06-23T21:49:59.610Z,66.90
2018-06-23T21:55:04.436Z,66.70
2018-06-23T22:00:21.029Z,66.40
2018-06-23T22:05:24.068Z,66.80
2018-06-23T22:10:27.781Z,67.00
2018-06-23T22:15:30.820Z,67.50
2018-06-23T22:20:33.944Z,67.80
2018-06-23T22:25:36.993Z,68.10
2018-06-23T22:30:40.045Z,68.40
2018-06-23T22:35:43.100Z,68.80
2018-06-23T22:40:46.143Z,69.30
2018-06-23T22:45:49.181Z,69.40
2018-06-23T22:55:55.168Z,70.10
2018-06-23T23:00:58.218Z,69.60
2018-06-23T23:06:02.203Z,69.40
2018-06-23T23:11:05.500Z,69.40
2018-06-23T23:16:08.549Z,69.90
2018-06-23T23:21:11.596Z,70.00
2018-06-23T23:26:14.705Z,70.80
2018-06-23T23:31:17.753Z,69.80
2018-06-23T23:36:20.802Z,70.00
2018-06-23T23:41:23.861Z,70.30
2018-06-23T23:46:26.908Z,70.80
2018-06-23T23:51:29.952Z,71.40
2018-06-23T23:56:33.069Z,72.30
